createdAt,value
2018-12-14T00:02:25.613Z,950.6
2018-12-14T00:05:34.076Z,950.6
2018-12-14T00:08:39.984Z,950.6
2018-12-14T00:11:46.871Z,950.6
2018-12-14T00:14:52.748Z,950.6
2018-12-14T00:17:58.687Z,950.7
2018-12-14T00:21:04.641Z,950.7
2018-12-14T00:24:10.514Z,950.8
2018-12-14T00:27:16.464Z,950.8
2018-12-14T00:30:22.341Z,950.9
2018-12-14T00:33:28.485Z,950.9
2018-12-14T00:36:34.354Z,950.9
2018-12-14T00:39:40.402Z,950.8
2018-12-14T00:42:46.272Z,950.9
2018-12-14T00:45:52.220Z,951
2018-12-14T00:48:58.277Z,950.8
2018-12-14T00:52:04.171Z,950.9
2018-12-14T00:55:10.198Z,950.9
2018-12-14T00:58:16.165Z,950.9
2018-12-14T01:01:22.122Z,950.9
2018-12-14T01:04:28.051Z,950.9
2018-12-14T01:07:34.145Z,950.9
2018-12-14T01:10:40.207Z,950.9
2018-12-14T01:13:46.160Z,950.9
2018-12-14T01:16:52.131Z,950.9
2018-12-14T01:19:58.081Z,950.9
2018-12-14T01:23:04.036Z,950.8
2018-12-14T01:26:09.907Z,950.9
2018-12-14T01:29:15.951Z,950.9
2018-12-14T01:32:21.912Z,950.9
2018-12-14T01:35:28.283Z,951
2018-12-14T01:38:34.289Z,950.9
2018-12-14T01:41:40.222Z,950.9
2018-12-14T01:44:46.283Z,950.9
2018-12-14T01:47:52.144Z,950.8
2018-12-14T01:50:58.185Z,950.8
2018-12-14T01:54:04.137Z,950.9
2018-12-14T01:57:10.209Z,950.8
2018-12-14T02:00:16.272Z,950.8
2018-12-14T02:03:22.222Z,950.8
2018-12-14T02:06:31.052Z,950.8
2018-12-14T02:09:36.928Z,950.8
2018-12-14T02:12:42.965Z,950.9
2018-12-14T02:15:48.839Z,950.8
2018-12-14T02:18:54.802Z,950.9
2018-12-14T02:22:00.664Z,950.8
2018-12-14T02:25:09.695Z,950.7
2018-12-14T02:28:15.564Z,950.7
2018-12-14T02:31:21.706Z,950.7
2018-12-14T02:34:27.576Z,950.8
2018-12-14T02:37:33.508Z,950.7
2018-12-14T02:40:39.476Z,950.8
2018-12-14T02:43:45.344Z,950.8
2018-12-14T02:46:51.331Z,950.8
2018-12-14T02:49:57.208Z,950.7
2018-12-14T02:53:03.206Z,950.8
2018-12-14T02:56:09.317Z,950.8
2018-12-14T02:59:15.191Z,950.8
2018-12-14T03:02:21.187Z,950.8
2018-12-14T03:05:27.274Z,950.7
2018-12-14T03:08:33.144Z,950.8
2018-12-14T03:11:39.163Z,950.7
2018-12-14T03:14:45.042Z,950.8
2018-12-14T03:17:53.659Z,950.8
2018-12-14T03:20:59.595Z,950.9
2018-12-14T03:24:05.469Z,950.8
2018-12-14T03:27:11.616Z,950.9
2018-12-14T03:30:17.682Z,950.8
2018-12-14T03:33:23.744Z,950.7
2018-12-14T03:36:29.612Z,950.7
2018-12-14T03:39:35.864Z,950.7
2018-12-14T03:42:42.031Z,950.7
2018-12-14T03:45:47.996Z,950.6
2018-12-14T03:48:53.950Z,950.6
2018-12-14T03:52:00.018Z,950.4
2018-12-14T03:55:05.975Z,950.5
2018-12-14T03:58:11.851Z,950.4
2018-12-14T04:01:17.783Z,950.5
2018-12-14T04:04:23.753Z,950.6
2018-12-14T04:07:29.702Z,950.6
2018-12-14T04:10:35.769Z,950.7
2018-12-14T04:13:41.835Z,950.7
2018-12-14T04:16:47.786Z,950.7
2018-12-14T04:19:53.758Z,950.7
2018-12-14T04:22:59.705Z,950.8
2018-12-14T04:26:05.660Z,950.8
2018-12-14T04:29:11.738Z,950.8
2018-12-14T04:32:17.687Z,950.8
2018-12-14T04:35:23.749Z,950.8
2018-12-14T04:38:30.667Z,950.7
2018-12-14T04:41:36.694Z,950.8
2018-12-14T04:44:42.761Z,950.8
2018-12-14T04:47:48.762Z,950.8
2018-12-14T04:50:54.770Z,950.8
2018-12-14T04:54:00.657Z,950.8
2018-12-14T04:57:06.687Z,950.8
2018-12-14T05:00:12.628Z,950.7
2018-12-14T05:03:18.609Z,950.8
2018-12-14T05:06:24.567Z,950.7
2018-12-14T05:09:30.449Z,950.8
2018-12-14T05:12:36.412Z,950.7
2018-12-14T05:15:42.265Z,950.8
2018-12-14T05:18:51.142Z,950.8
2018-12-14T05:21:57.205Z,950.7
2018-12-14T05:25:03.247Z,950.7
2018-12-14T05:28:09.254Z,950.7
2018-12-14T05:31:18.103Z,950.7
2018-12-14T05:34:24.038Z,950.8
2018-12-14T05:37:30.023Z,950.9
2018-12-14T05:40:36.060Z,951
2018-12-14T05:43:41.958Z,951
2018-12-14T05:46:48.026Z,1245.8
2018-12-14T05:49:56.603Z,1245.8
2018-12-14T05:53:02.666Z,1245.8
2018-12-14T05:56:08.541Z,1245.8
2018-12-14T05:59:15.500Z,1245.8
2018-12-14T06:02:21.501Z,1245.8
2018-12-14T06:05:27.519Z,1245.8
2018-12-14T06:08:33.412Z,1245.8
2018-12-14T06:11:39.645Z,1245.8
2018-12-14T06:14:48.476Z,1245.8
2018-12-14T06:17:54.354Z,1245.8
2018-12-14T06:21:00.448Z,1245.8
2018-12-14T06:24:06.502Z,1245.8
2018-12-14T06:27:12.516Z,1245.8
2018-12-14T06:30:18.421Z,1245.8
2018-12-14T06:33:24.331Z,1245.8
2018-12-14T06:36:30.289Z,1245.8
2018-12-14T06:39:36.354Z,1245.8
2018-12-14T06:42:42.313Z,1245.8
2018-12-14T06:45:48.191Z,1245.8
2018-12-14T06:48:54.233Z,1245.8
2018-12-14T06:52:00.403Z,1245.8
2018-12-14T06:55:06.277Z,1245.8
2018-12-14T06:58:12.324Z,1245.8
2018-12-14T07:01:18.407Z,1245.8
2018-12-14T07:04:24.451Z,1245.8
2018-12-14T07:07:30.331Z,1245.8
2018-12-14T07:10:36.357Z,1245.8
2018-12-14T07:13:44.569Z,1245.8
2018-12-14T07:16:50.577Z,1245.8
2018-12-14T07:19:56.585Z,1245.8
2018-12-14T07:23:02.752Z,1245.8
2018-12-14T07:26:08.826Z,1245.8
2018-12-14T07:29:14.983Z,1245.8
2018-12-14T07:32:20.935Z,1245.8
2018-12-14T07:35:26.894Z,1245.8
2018-12-14T07:38:32.872Z,1245.8
2018-12-14T07:41:38.761Z,1245.8
2018-12-14T07:44:45.156Z,1245.8
2018-12-14T07:47:52.285Z,1245.8
2018-12-14T07:50:58.344Z,1245.8
2018-12-14T07:54:04.297Z,1245.8
2018-12-14T07:57:10.253Z,1245.8
2018-12-14T08:00:16.383Z,1245.8
2018-12-14T08:03:22.489Z,1245.8
2018-12-14T08:06:28.451Z,1245.8
2018-12-14T08:09:34.510Z,1245.8
2018-12-14T08:12:40.575Z,1245.8
2018-12-14T08:15:46.542Z,1245.8
2018-12-14T08:18:52.804Z,1245.8
2018-12-14T08:21:58.804Z,1245.8
2018-12-14T08:25:05.109Z,1245.8
2018-12-14T08:28:11.089Z,1245.8
2018-12-14T08:31:17.149Z,1245.8
2018-12-14T08:34:23.032Z,1245.8
2018-12-14T08:37:29.062Z,1245.8
2018-12-14T08:40:36.094Z,1245.8
2018-12-14T08:43:42.948Z,1245.8
2018-12-14T08:46:48.990Z,1245.8
2018-12-14T08:49:55.980Z,1245.8
2018-12-14T08:53:01.858Z,1245.8
2018-12-14T08:56:07.995Z,1245.8
2018-12-14T08:59:14.101Z,1245.8
2018-12-14T09:02:20.490Z,1245.8
2018-12-14T09:05:26.691Z,1245.8
2018-12-14T09:08:32.752Z,1245.8
2018-12-14T09:11:38.817Z,1245.8
2018-12-14T09:14:44.775Z,1245.8
2018-12-14T09:17:51.590Z,1245.8
2018-12-14T09:21:02.346Z,1245.8
2018-12-14T09:24:08.594Z,1245.8
2018-12-14T09:27:14.551Z,1245.8
2018-12-14T09:30:20.509Z,1245.8
2018-12-14T09:33:26.458Z,1245.8
2018-12-14T09:36:35.399Z,1245.8
2018-12-14T09:39:44.172Z,1245.8
2018-12-14T09:42:50.195Z,1245.8
2018-12-14T09:45:56.196Z,1245.8
2018-12-14T09:49:03.281Z,1245.8
2018-12-14T09:52:09.197Z,1245.8
2018-12-14T09:55:15.258Z,1245.8
2018-12-14T09:58:21.273Z,1245.8
2018-12-14T10:01:28.252Z,1245.8
2018-12-14T10:04:34.362Z,1245.8
2018-12-14T10:07:46.625Z,1245.8
2018-12-14T10:10:52.659Z,1245.8
2018-12-14T10:14:02.172Z,1245.8
2018-12-14T10:17:10.663Z,1245.8
2018-12-14T10:20:16.752Z,1245.8
2018-12-14T10:23:22.867Z,1245.8
2018-12-14T10:26:29.182Z,1245.8
2018-12-14T10:29:35.255Z,1245.8
2018-12-14T10:32:41.249Z,1245.8
2018-12-14T10:35:47.345Z,1245.8
2018-12-14T10:38:53.285Z,1245.8
2018-12-14T10:41:59.392Z,1245.8
2018-12-14T10:45:05.348Z,1245.8
2018-12-14T10:48:11.307Z,1245.8
2018-12-14T10:51:17.188Z,1245.8
2018-12-14T10:54:23.329Z,1245.8
2018-12-14T10:57:29.496Z,1245.8
2018-12-14T11:00:35.475Z,1245.8
2018-12-14T11:03:41.515Z,1245.8
2018-12-14T11:06:47.399Z,1245.8
2018-12-14T11:09:53.330Z,1245.8
2018-12-14T11:12:59.235Z,1245.8
2018-12-14T11:16:06.172Z,1245.8
2018-12-14T11:19:12.143Z,1245.8
2018-12-14T11:22:18.318Z,1245.8
2018-12-14T11:25:24.454Z,1245.8
2018-12-14T11:28:30.341Z,1245.8
2018-12-14T11:31:37.301Z,1245.8
2018-12-14T11:34:43.467Z,1245.8
2018-12-14T11:37:49.424Z,1245.8
2018-12-14T11:40:55.487Z,1245.8
2018-12-14T11:44:01.368Z,1245.8
2018-12-14T11:47:07.404Z,1245.8
2018-12-14T11:50:20.066Z,1245.8
2018-12-14T11:53:25.951Z,1245.8
2018-12-14T11:56:32.031Z,1245.8
2018-12-14T11:59:37.998Z,1245.8
2018-12-14T12:02:44.674Z,1245.8
2018-12-14T12:05:50.561Z,1245.8
2018-12-14T12:08:56.825Z,1245.8
2018-12-14T12:12:02.967Z,1245.8
2018-12-14T12:15:10.868Z,1245.8
2018-12-14T12:18:16.826Z,1245.8
2018-12-14T12:21:22.783Z,1245.8
2018-12-14T12:24:29.778Z,1245.8
2018-12-14T12:27:35.727Z,1245.8
2018-12-14T12:30:41.663Z,1245.8
2018-12-14T12:33:47.667Z,1245.8
2018-12-14T12:36:53.704Z,1245.8
2018-12-14T12:39:59.835Z,1245.8
2018-12-14T12:43:05.958Z,1245.8
2018-12-14T12:46:12.207Z,1245.8
2018-12-14T12:49:18.088Z,1245.8
2018-12-14T12:52:24.164Z,1245.8
2018-12-14T12:55:30.337Z,1245.8
2018-12-14T12:58:36.517Z,1245.8
2018-12-14T13:01:43.356Z,1245.8
2018-12-14T13:04:49.388Z,1245.8
2018-12-14T13:07:55.498Z,1245.8
2018-12-14T13:11:01.884Z,1245.8
2018-12-14T13:14:07.879Z,1245.8
2018-12-14T13:17:15.009Z,1245.8
2018-12-14T13:20:21.135Z,1245.8
2018-12-14T13:23:27.298Z,1245.8
2018-12-14T13:26:33.266Z,1245.8
2018-12-14T13:29:39.161Z,1245.8
2018-12-14T13:32:45.157Z,1245.8
2018-12-14T13:35:52.007Z,1245.8
2018-12-14T13:38:58.039Z,1245.8
2018-12-14T13:42:03.970Z,1245.8
2018-12-14T13:45:09.963Z,1245.8
2018-12-14T13:48:16.095Z,1245.8
2018-12-14T13:51:22.987Z,1245.8
2018-12-14T13:54:29.039Z,1245.8
2018-12-14T13:57:35.014Z,1245.8
2018-12-14T14:00:40.988Z,1245.8
2018-12-14T14:01:38.685Z,950.5
2018-12-14T14:04:44.867Z,950.4
2018-12-14T14:07:50.786Z,950.4
2018-12-14T14:10:56.834Z,950.4
2018-12-14T14:14:02.906Z,950.5
2018-12-14T14:17:08.912Z,950.5
2018-12-14T14:20:16.818Z,950.4
2018-12-14T14:23:22.719Z,950.4
